createdAt,value
2023-01-12T00:00:09.790Z,5.38
2023-01-12T00:00:36.561Z,5.38
2023-01-12T00:00:55.690Z,5.38
2023-01-12T00:01:27.434Z,5.50
2023-01-12T00:01:59.617Z,5.38
2023-01-12T00:02:31.839Z,5.38
2023-01-12T00:03:03.554Z,5.38
2023-01-12T00:03:35.366Z,5.38
2023-01-12T00:04:07.486Z,5.38
2023-01-12T00:04:36.583Z,5.38
2023-01-12T00:04:55.626Z,5.38
2023-01-12T00:05:27.885Z,5.27
2023-01-12T00:05:59.468Z,5.27
2023-01-12T00:06:31.495Z,5.27
2023-01-12T00:07:03.459Z,5.27
2023-01-12T00:07:35.311Z,5.27
2023-01-12T00:08:07.496Z,5.27
2023-01-12T00:08:37.205Z,5.27
2023-01-12T00:08:55.271Z,5.27
2023-01-12T00:09:27.455Z,5.22
2023-01-12T00:09:59.733Z,5.22
2023-01-12T00:10:32.176Z,5.22
2023-01-12T00:11:03.784Z,5.22
2023-01-12T00:11:35.882Z,5.22
2023-01-12T00:12:07.464Z,5.27
2023-01-12T00:12:36.673Z,5.27
2023-01-12T00:12:55.261Z,5.27
2023-01-12T00:13:27.446Z,5.27
2023-01-12T00:14:00.113Z,5.27
2023-01-12T00:14:31.562Z,5.27
2023-01-12T00:15:05.527Z,5.27
2023-01-12T00:15:35.456Z,5.27
2023-01-12T00:16:07.498Z,5.27
2023-01-12T00:16:36.491Z,5.27
2023-01-12T00:16:55.171Z,5.27
2023-01-12T00:17:27.355Z,5.22
2023-01-12T00:17:59.534Z,5.22
2023-01-12T00:18:31.610Z,5.11
2023-01-12T00:19:03.662Z,5.11
2023-01-12T00:19:36.052Z,5.11
2023-01-12T00:20:08.902Z,5.11
2023-01-12T00:20:37.370Z,5.11
2023-01-12T00:20:55.706Z,5.11
2023-01-12T00:21:27.394Z,5.11
2023-01-12T00:21:59.839Z,5.11
2023-01-12T00:22:31.554Z,5.11
2023-01-12T00:23:03.883Z,5.11
2023-01-12T00:23:35.324Z,5.11
2023-01-12T00:24:07.541Z,5.11
2023-01-12T00:24:37.019Z,5.11
2023-01-12T00:24:55.266Z,5.11
2023-01-12T00:25:27.873Z,5.11
2023-01-12T00:25:59.557Z,5.11
2023-01-12T00:26:31.718Z,5.11
2023-01-12T00:27:03.473Z,5.11
2023-01-12T00:27:35.731Z,5.11
2023-01-12T00:28:07.883Z,5.11
2023-01-12T00:28:36.375Z,5.11
2023-01-12T00:28:55.234Z,5.11
2023-01-12T00:29:27.453Z,5.11
2023-01-12T00:29:59.604Z,5.11
2023-01-12T00:30:32.747Z,5.22
2023-01-12T00:31:03.579Z,5.22
2023-01-12T00:31:35.369Z,5.22
2023-01-12T00:32:07.513Z,5.22
2023-01-12T00:32:37.005Z,5.22
2023-01-12T00:32:55.432Z,5.27
2023-01-12T00:33:27.423Z,5.27
2023-01-12T00:33:59.747Z,5.27
2023-01-12T00:34:31.674Z,5.27
2023-01-12T00:35:04.856Z,5.27
2023-01-12T00:35:35.886Z,5.27
2023-01-12T00:36:07.487Z,5.27
2023-01-12T00:36:36.406Z,5.27
2023-01-12T00:36:55.279Z,5.27
2023-01-12T00:37:27.440Z,5.27
2023-01-12T00:37:59.531Z,5.27
2023-01-12T00:38:31.509Z,5.27
2023-01-12T00:39:03.401Z,5.38
2023-01-12T00:39:35.588Z,5.38
2023-01-12T00:40:08.001Z,5.38
2023-01-12T00:40:36.550Z,5.38
2023-01-12T00:40:55.502Z,5.38
2023-01-12T00:41:27.403Z,5.38
2023-01-12T00:41:59.530Z,5.38
2023-01-12T00:42:31.591Z,5.50
2023-01-12T00:43:03.475Z,5.50
2023-01-12T00:43:35.276Z,5.50
2023-01-12T00:44:07.702Z,5.61
2023-01-12T00:44:36.533Z,5.61
2023-01-12T00:44:55.491Z,5.61
2023-01-12T00:45:28.477Z,5.61
2023-01-12T00:46:00.297Z,5.61
2023-01-12T00:46:31.641Z,5.72
2023-01-12T00:47:03.626Z,5.72
2023-01-12T00:47:35.408Z,5.72
2023-01-12T00:48:07.446Z,5.72
2023-01-12T00:48:36.689Z,5.72
2023-01-12T00:48:55.202Z,5.72
2023-01-12T00:49:27.481Z,5.72
2023-01-12T00:49:59.619Z,5.72
2023-01-12T00:50:31.962Z,5.72
2023-01-12T00:51:03.510Z,5.72
2023-01-12T00:51:35.372Z,5.72
2023-01-12T00:52:08.575Z,5.72
2023-01-12T00:52:36.716Z,5.72
2023-01-12T00:52:55.275Z,5.72
2023-01-12T00:53:27.438Z,5.72
2023-01-12T00:53:59.731Z,5.72
2023-01-12T00:54:31.686Z,5.72
2023-01-12T00:55:20.944Z,5.72
2023-01-12T00:55:41.402Z,5.72
2023-01-12T00:56:07.435Z,5.72
2023-01-12T00:56:36.893Z,5.72
2023-01-12T00:56:55.303Z,5.77
2023-01-12T00:57:27.458Z,5.77
2023-01-12T00:57:59.673Z,5.77
2023-01-12T00:58:31.589Z,5.77
2023-01-12T00:59:03.655Z,5.77
2023-01-12T00:59:35.378Z,5.77
2023-01-12T01:00:09.498Z,5.77
2023-01-12T01:00:37.376Z,5.88
2023-01-12T01:00:55.603Z,5.88
2023-01-12T01:01:27.527Z,5.88
2023-01-12T01:01:59.651Z,5.88
2023-01-12T01:02:31.848Z,5.88
2023-01-12T01:03:03.566Z,5.88
2023-01-12T01:03:35.422Z,5.88
2023-01-12T01:04:07.522Z,5.88
2023-01-12T01:04:36.833Z,5.88
2023-01-12T01:04:55.271Z,5.88
2023-01-12T01:05:27.995Z,5.88
2023-01-12T01:05:59.560Z,5.88
2023-01-12T01:06:31.602Z,6.00
2023-01-12T01:07:03.543Z,6.00
2023-01-12T01:07:35.748Z,6.00
2023-01-12T01:08:07.528Z,6.00
2023-01-12T01:08:36.546Z,6.00
2023-01-12T01:08:55.239Z,6.00
2023-01-12T01:09:27.495Z,6.00
2023-01-12T01:09:59.574Z,6.00
2023-01-12T01:10:32.226Z,6.00
2023-01-12T01:11:03.585Z,6.00
2023-01-12T01:11:35.366Z,6.00
2023-01-12T01:12:07.447Z,6.11
2023-01-12T01:12:36.473Z,6.00
2023-01-12T01:12:55.294Z,6.11
2023-01-12T01:13:27.897Z,6.11
2023-01-12T01:13:59.544Z,6.11
2023-01-12T01:14:31.604Z,6.00
2023-01-12T01:15:05.498Z,6.00
2023-01-12T01:15:35.566Z,6.00
2023-01-12T01:16:07.697Z,6.00
2023-01-12T01:16:36.741Z,6.00
2023-01-12T01:16:55.182Z,6.00
2023-01-12T01:17:27.436Z,6.00
2023-01-12T01:17:59.492Z,6.00
2023-01-12T01:18:31.723Z,6.00
2023-01-12T01:19:03.525Z,6.00
2023-01-12T01:19:35.428Z,6.00
2023-01-12T01:20:08.795Z,6.00
2023-01-12T01:20:36.891Z,6.00
2023-01-12T01:20:55.541Z,6.00
2023-01-12T01:21:27.543Z,6.00
2023-01-12T01:21:59.589Z,6.00
2023-01-12T01:22:32.139Z,6.00
2023-01-12T01:23:03.489Z,6.11
2023-01-12T01:23:35.449Z,6.11
2023-01-12T01:24:07.526Z,6.22
2023-01-12T01:24:37.117Z,6.22
2023-01-12T01:24:55.346Z,6.22
2023-01-12T01:25:27.869Z,6.22
2023-01-12T01:25:59.531Z,6.22
2023-01-12T01:26:31.636Z,6.27
2023-01-12T01:27:03.557Z,6.27
2023-01-12T01:27:35.725Z,6.27
2023-01-12T01:28:07.747Z,6.38
2023-01-12T01:28:36.735Z,6.38
2023-01-12T01:28:55.140Z,6.38
2023-01-12T01:29:27.524Z,6.38
2023-01-12T01:29:59.692Z,6.38
2023-01-12T01:30:32.616Z,6.38
2023-01-12T01:31:03.465Z,6.38
2023-01-12T01:31:36.359Z,6.27
2023-01-12T01:32:07.447Z,6.27
2023-01-12T01:32:37.207Z,6.27
2023-01-12T01:32:55.353Z,6.27
2023-01-12T01:33:27.514Z,6.27
2023-01-12T01:33:59.834Z,6.27
2023-01-12T01:34:31.817Z,6.22
2023-01-12T01:35:04.634Z,6.22
2023-01-12T01:35:35.444Z,6.22
2023-01-12T01:36:07.558Z,6.22
2023-01-12T01:36:37.803Z,6.22
2023-01-12T01:36:55.243Z,6.27
2023-01-12T01:37:27.581Z,6.27
2023-01-12T01:38:00.120Z,6.27
2023-01-12T01:38:31.703Z,6.27
2023-01-12T01:39:03.547Z,6.27
2023-01-12T01:39:35.548Z,6.27
2023-01-12T01:40:07.890Z,6.27
2023-01-12T01:40:36.631Z,6.27
2023-01-12T01:40:55.769Z,6.27
2023-01-12T01:41:27.521Z,6.27
2023-01-12T01:41:59.865Z,6.27
2023-01-12T01:42:31.569Z,6.27
2023-01-12T01:43:03.492Z,6.27
2023-01-12T01:43:35.314Z,6.27
2023-01-12T01:44:07.500Z,6.27
2023-01-12T01:44:36.521Z,6.27
2023-01-12T01:44:55.267Z,6.27
2023-01-12T01:45:28.573Z,6.27
2023-01-12T01:45:59.575Z,6.27
2023-01-12T01:46:31.760Z,6.27
2023-01-12T01:47:03.516Z,6.27
2023-01-12T01:47:35.338Z,6.27
2023-01-12T01:48:07.540Z,6.27
2023-01-12T01:48:36.627Z,6.27
2023-01-12T01:48:55.167Z,6.27
2023-01-12T01:49:27.506Z,6.27
2023-01-12T01:49:59.735Z,6.27
2023-01-12T01:50:31.931Z,6.27
2023-01-12T01:51:03.504Z,6.27
2023-01-12T01:51:35.312Z,6.27
2023-01-12T01:52:07.521Z,6.27
2023-01-12T01:52:36.693Z,6.27
2023-01-12T01:52:55.308Z,6.27
2023-01-12T01:53:27.490Z,6.27
2023-01-12T01:53:59.609Z,6.27
2023-01-12T01:54:31.788Z,6.27
2023-01-12T01:55:04.886Z,6.27
2023-01-12T01:55:35.307Z,6.27
2023-01-12T01:56:07.595Z,6.27
2023-01-12T01:56:36.446Z,6.27
2023-01-12T01:56:55.252Z,6.27
2023-01-12T01:57:27.600Z,6.27
2023-01-12T01:57:59.657Z,6.27
2023-01-12T01:58:31.715Z,6.27
2023-01-12T01:59:03.565Z,6.38
2023-01-12T01:59:35.343Z,6.38
2023-01-12T02:00:09.423Z,6.38
2023-01-12T02:00:36.561Z,6.38
2023-01-12T02:00:55.782Z,6.38
2023-01-12T02:01:27.650Z,6.38
2023-01-12T02:01:59.771Z,6.38
2023-01-12T02:02:31.643Z,6.38
2023-01-12T02:03:03.514Z,6.38
2023-01-12T02:03:36.900Z,6.38
2023-01-12T02:04:07.586Z,6.38
2023-01-12T02:04:36.580Z,6.38
2023-01-12T02:04:55.210Z,6.38
2023-01-12T02:05:27.977Z,6.27
2023-01-12T02:05:59.518Z,6.27
2023-01-12T02:06:31.671Z,6.27
2023-01-12T02:07:03.599Z,6.27
2023-01-12T02:07:35.437Z,6.27
2023-01-12T02:08:07.459Z,6.27
2023-01-12T02:08:36.554Z,6.27
2023-01-12T02:08:55.231Z,6.38
2023-01-12T02:09:27.484Z,6.38
2023-01-12T02:09:59.716Z,6.38
2023-01-12T02:10:32.315Z,6.27
2023-01-12T02:11:03.510Z,6.27
2023-01-12T02:11:35.576Z,6.27
2023-01-12T02:12:07.423Z,6.27
2023-01-12T02:12:36.715Z,6.27
2023-01-12T02:12:55.281Z,6.27
2023-01-12T02:13:27.458Z,6.27
2023-01-12T02:13:59.548Z,6.27
2023-01-12T02:14:31.655Z,6.27
2023-01-12T02:15:05.554Z,6.27
2023-01-12T02:15:35.706Z,6.27
2023-01-12T02:16:07.519Z,6.27
2023-01-12T02:16:36.592Z,6.27
2023-01-12T02:16:55.375Z,6.27
2023-01-12T02:17:27.491Z,6.27
2023-01-12T02:17:59.581Z,6.27
2023-01-12T02:18:31.708Z,6.27
2023-01-12T02:19:03.522Z,6.27
2023-01-12T02:19:35.627Z,6.27
2023-01-12T02:20:08.647Z,6.27
2023-01-12T02:20:36.921Z,6.27
2023-01-12T02:20:55.982Z,6.27
2023-01-12T02:21:27.455Z,6.27
2023-01-12T02:21:59.716Z,6.27
2023-01-12T02:22:31.708Z,6.27
2023-01-12T02:23:03.680Z,6.27
2023-01-12T02:23:35.714Z,6.27
2023-01-12T02:24:07.625Z,6.27
2023-01-12T02:24:36.507Z,6.27
2023-01-12T02:24:55.289Z,6.27
2023-01-12T02:25:27.850Z,6.27
2023-01-12T02:25:59.517Z,6.27
2023-01-12T02:26:31.679Z,6.27
2023-01-12T02:27:03.483Z,6.27
2023-01-12T02:27:35.628Z,6.27
2023-01-12T02:28:07.449Z,6.27
2023-01-12T02:28:36.565Z,6.27
2023-01-12T02:28:55.211Z,6.27
2023-01-12T02:29:27.803Z,6.27
2023-01-12T02:30:01.769Z,6.38
2023-01-12T02:30:33.316Z,6.38
2023-01-12T02:31:04.676Z,6.38
2023-01-12T02:31:36.439Z,6.38
2023-01-12T02:32:08.619Z,6.38
2023-01-12T02:32:38.079Z,6.38
2023-01-12T02:32:56.638Z,6.38
2023-01-12T02:33:28.727Z,6.38
2023-01-12T02:34:01.594Z,6.38
2023-01-12T02:34:32.996Z,6.38
2023-01-12T02:35:07.498Z,6.38
2023-01-12T02:35:37.053Z,6.38
2023-01-12T02:36:08.438Z,6.38
2023-01-12T02:36:38.001Z,6.38
2023-01-12T02:36:56.373Z,6.38
2023-01-12T02:37:28.449Z,6.38
2023-01-12T02:38:01.680Z,6.38
2023-01-12T02:38:33.281Z,6.38
2023-01-12T02:39:04.868Z,6.38
2023-01-12T02:39:38.924Z,6.38
2023-01-12T02:40:10.535Z,6.38
2023-01-12T02:40:38.218Z,6.38
2023-01-12T02:40:57.256Z,6.27
2023-01-12T02:41:28.539Z,6.27
2023-01-12T02:42:00.915Z,6.27
2023-01-12T02:42:32.738Z,6.27
2023-01-12T02:43:04.929Z,6.27
2023-01-12T02:43:36.216Z,6.27
2023-01-12T02:44:08.748Z,6.27
2023-01-12T02:44:37.982Z,6.27
2023-01-12T02:44:56.442Z,6.27
2023-01-12T02:45:29.907Z,6.38
2023-01-12T02:46:00.965Z,6.38
2023-01-12T02:46:33.255Z,6.38
2023-01-12T02:47:04.841Z,6.38
2023-01-12T02:47:36.664Z,6.38
2023-01-12T02:48:08.891Z,6.38
2023-01-12T02:48:38.475Z,6.38
2023-01-12T02:48:56.505Z,6.50
2023-01-12T02:49:28.748Z,6.50
2023-01-12T02:50:03.736Z,6.50
2023-01-12T02:50:33.322Z,6.50
2023-01-12T02:51:04.845Z,6.50
2023-01-12T02:51:37.686Z,6.50
2023-01-12T02:52:08.702Z,6.50
2023-01-12T02:52:37.965Z,6.50
2023-01-12T02:52:55.463Z,6.50
2023-01-12T02:53:29.693Z,6.50
2023-01-12T02:54:00.110Z,6.50
2023-01-12T02:54:33.254Z,6.50
2023-01-12T02:55:07.309Z,6.50
2023-01-12T02:55:36.520Z,6.50
2023-01-12T02:56:08.743Z,6.50
2023-01-12T02:56:37.883Z,6.50
2023-01-12T02:56:56.319Z,6.38
2023-01-12T02:57:28.840Z,6.38
2023-01-12T02:58:01.123Z,6.50
2023-01-12T02:58:33.643Z,6.50
2023-01-12T02:59:04.659Z,6.50
2023-01-12T02:59:36.737Z,6.50
2023-01-12T03:00:13.027Z,6.50
2023-01-12T03:00:38.646Z,6.50
2023-01-12T03:00:57.133Z,6.50
2023-01-12T03:01:28.871Z,6.50
2023-01-12T03:02:00.930Z,6.50
2023-01-12T03:02:33.435Z,6.50
2023-01-12T03:03:04.706Z,6.50
2023-01-12T03:03:37.425Z,6.50
2023-01-12T03:04:08.854Z,6.50
2023-01-12T03:04:38.363Z,6.50
2023-01-12T03:04:56.457Z,6.50
2023-01-12T03:05:29.331Z,6.50
2023-01-12T03:06:00.888Z,6.50
2023-01-12T03:06:33.031Z,6.50
2023-01-12T03:07:04.781Z,6.61
2023-01-12T03:07:36.522Z,6.61
2023-01-12T03:08:08.630Z,6.61
2023-01-12T03:08:38.193Z,6.61
2023-01-12T03:08:56.352Z,6.61
2023-01-12T03:09:28.374Z,6.61
2023-01-12T03:10:01.746Z,6.61
2023-01-12T03:10:33.200Z,6.61
2023-01-12T03:11:04.587Z,6.61
2023-01-12T03:11:37.221Z,6.61
2023-01-12T03:12:08.736Z,6.61
2023-01-12T03:12:38.294Z,6.61
2023-01-12T03:12:56.485Z,6.61
2023-01-12T03:13:28.874Z,6.61
2023-01-12T03:14:01.018Z,6.61
2023-01-12T03:14:33.186Z,6.61
2023-01-12T03:15:07.946Z,6.61
2023-01-12T03:15:37.012Z,6.61
2023-01-12T03:16:09.030Z,6.61
2023-01-12T03:16:38.708Z,6.61
2023-01-12T03:16:56.175Z,6.61
2023-01-12T03:17:28.482Z,6.61
2023-01-12T03:18:00.784Z,6.61
2023-01-12T03:18:32.867Z,6.61
2023-01-12T03:19:04.636Z,6.61
2023-01-12T03:19:36.857Z,6.61
2023-01-12T03:20:11.383Z,6.61
2023-01-12T03:20:40.696Z,6.61
2023-01-12T03:20:56.599Z,6.61
2023-01-12T03:21:28.496Z,6.61
2023-01-12T03:22:01.331Z,6.61
2023-01-12T03:22:33.975Z,6.61
2023-01-12T03:23:04.681Z,6.61
2023-01-12T03:23:36.749Z,6.61
2023-01-12T03:24:09.014Z,6.61
2023-01-12T03:24:37.956Z,6.61
2023-01-12T03:24:56.417Z,6.61
2023-01-12T03:25:29.325Z,6.50
2023-01-12T03:26:01.127Z,6.50
2023-01-12T03:26:32.829Z,6.50
2023-01-12T03:27:04.634Z,6.50
2023-01-12T03:27:36.681Z,6.50
2023-01-12T03:28:08.667Z,6.50
2023-01-12T03:28:38.660Z,6.50
2023-01-12T03:28:56.757Z,6.50
2023-01-12T03:29:29.547Z,6.61
2023-01-12T03:30:03.344Z,6.61
2023-01-12T03:30:33.075Z,6.61
2023-01-12T03:31:04.823Z,6.61
2023-01-12T03:31:35.527Z,6.61
2023-01-12T03:32:07.476Z,6.61
2023-01-12T03:32:37.906Z,6.61
2023-01-12T03:32:56.729Z,6.61
2023-01-12T03:33:28.492Z,6.72
2023-01-12T03:34:01.283Z,6.72
2023-01-12T03:34:32.817Z,6.72
2023-01-12T03:35:07.120Z,6.72
2023-01-12T03:35:36.312Z,6.72
2023-01-12T03:36:08.733Z,6.72
2023-01-12T03:36:37.981Z,6.72
2023-01-12T03:36:56.280Z,6.72
2023-01-12T03:37:28.970Z,6.72
2023-01-12T03:38:01.211Z,6.72
2023-01-12T03:38:32.654Z,6.72
2023-01-12T03:39:05.036Z,6.72
2023-01-12T03:39:36.502Z,6.72
2023-01-12T03:40:10.307Z,6.72
2023-01-12T03:40:37.788Z,6.72
2023-01-12T03:40:56.537Z,6.72
2023-01-12T03:41:28.845Z,6.72
2023-01-12T03:42:00.739Z,6.72
2023-01-12T03:42:32.863Z,6.72
2023-01-12T03:43:05.118Z,6.72
2023-01-12T03:43:36.633Z,6.72
2023-01-12T03:44:09.685Z,6.72
2023-01-12T03:44:37.475Z,6.72
2023-01-12T03:44:56.565Z,6.72
2023-01-12T03:45:29.691Z,6.72
2023-01-12T03:46:00.915Z,6.61
2023-01-12T03:46:32.752Z,6.61
2023-01-12T03:47:04.631Z,6.72
2023-01-12T03:47:36.491Z,6.72
2023-01-12T03:48:09.357Z,6.72
2023-01-12T03:48:38.304Z,6.72
2023-01-12T03:48:56.215Z,6.72
2023-01-12T03:49:28.479Z,6.72
2023-01-12T03:50:01.803Z,6.72
2023-01-12T03:50:32.569Z,6.72
2023-01-12T03:51:04.559Z,6.72
2023-01-12T03:51:36.584Z,6.77
2023-01-12T03:52:08.831Z,6.77
2023-01-12T03:52:37.650Z,6.77
2023-01-12T03:52:56.484Z,6.77
2023-01-12T03:53:28.481Z,6.72
2023-01-12T03:54:01.014Z,6.72
2023-01-12T03:54:33.009Z,6.72
2023-01-12T03:55:06.449Z,6.72
2023-01-12T03:55:36.468Z,6.72
2023-01-12T03:56:08.272Z,6.72
2023-01-12T03:56:37.546Z,6.72
2023-01-12T03:56:56.334Z,6.61
2023-01-12T03:57:28.443Z,6.61
2023-01-12T03:58:01.121Z,6.61
2023-01-12T03:58:32.898Z,6.61
2023-01-12T03:59:04.423Z,6.61
2023-01-12T03:59:36.698Z,6.61
2023-01-12T04:00:10.595Z,6.61
2023-01-12T04:00:36.895Z,6.61
2023-01-12T04:00:56.055Z,6.61
2023-01-12T04:01:27.564Z,6.61
2023-01-12T04:01:59.668Z,6.61
2023-01-12T04:02:31.538Z,6.61
2023-01-12T04:03:03.608Z,6.72
2023-01-12T04:03:35.617Z,6.61
2023-01-12T04:04:07.578Z,6.61
2023-01-12T04:04:36.556Z,6.61
2023-01-12T04:04:55.320Z,6.61
2023-01-12T04:05:27.874Z,6.72
2023-01-12T04:05:59.560Z,6.72
2023-01-12T04:06:31.495Z,6.72
2023-01-12T04:07:03.721Z,6.72
2023-01-12T04:07:35.298Z,6.72
2023-01-12T04:08:07.397Z,6.72
2023-01-12T04:08:36.563Z,6.72
2023-01-12T04:08:55.293Z,6.61
2023-01-12T04:09:27.295Z,6.61
2023-01-12T04:09:59.495Z,6.61
2023-01-12T04:10:32.073Z,6.61
2023-01-12T04:11:03.646Z,6.61
2023-01-12T04:11:35.293Z,6.61
2023-01-12T04:12:07.427Z,6.61
2023-01-12T04:12:36.679Z,6.61
2023-01-12T04:13:11.150Z,6.61
2023-01-12T04:13:36.866Z,6.61
2023-01-12T04:13:59.877Z,6.61
2023-01-12T04:14:31.519Z,6.61
2023-01-12T04:15:05.683Z,6.61
2023-01-12T04:15:35.764Z,6.61
2023-01-12T04:16:07.409Z,6.61
2023-01-12T04:16:37.194Z,6.61
2023-01-12T04:16:55.272Z,6.61
2023-01-12T04:17:27.335Z,6.61
2023-01-12T04:17:59.622Z,6.61
2023-01-12T04:18:31.502Z,6.61
2023-01-12T04:19:03.585Z,6.61
2023-01-12T04:19:35.287Z,6.61
2023-01-12T04:20:09.014Z,6.61
2023-01-12T04:20:37.208Z,6.72
2023-01-12T04:20:55.651Z,6.72
2023-01-12T04:21:27.493Z,6.72
2023-01-12T04:21:59.664Z,6.72
2023-01-12T04:22:31.565Z,6.72
2023-01-12T04:23:03.628Z,6.72
2023-01-12T04:23:35.321Z,6.72
2023-01-12T04:24:07.600Z,6.72
2023-01-12T04:24:36.455Z,6.72
2023-01-12T04:24:55.460Z,6.72
2023-01-12T04:25:28.085Z,6.61
2023-01-12T04:25:59.574Z,6.61
2023-01-12T04:26:31.642Z,6.61
2023-01-12T04:27:03.600Z,6.61
2023-01-12T04:27:35.317Z,6.61
2023-01-12T04:28:07.531Z,6.61
2023-01-12T04:28:36.533Z,6.61
2023-01-12T04:28:55.269Z,6.61
2023-01-12T04:29:27.614Z,6.61
2023-01-12T04:30:04.164Z,6.61
2023-01-12T04:30:31.820Z,6.61
2023-01-12T04:31:03.613Z,6.61
2023-01-12T04:31:35.389Z,6.61
2023-01-12T04:32:07.547Z,6.72
2023-01-12T04:32:36.611Z,6.61
2023-01-12T04:32:55.227Z,6.61
2023-01-12T04:33:27.380Z,6.61
2023-01-12T04:33:59.887Z,6.61
2023-01-12T04:34:31.762Z,6.61
2023-01-12T04:35:04.808Z,6.61
2023-01-12T04:35:35.312Z,6.61
2023-01-12T04:36:07.414Z,6.61
2023-01-12T04:36:36.625Z,6.61
2023-01-12T04:36:55.311Z,6.61
2023-01-12T04:37:27.328Z,6.61
2023-01-12T04:37:59.673Z,6.61
2023-01-12T04:38:31.939Z,6.61
2023-01-12T04:39:03.526Z,6.61
2023-01-12T04:39:35.318Z,6.61
2023-01-12T04:40:07.822Z,6.72
2023-01-12T04:40:36.569Z,6.72
2023-01-12T04:40:55.605Z,6.61
2023-01-12T04:41:27.457Z,6.61
2023-01-12T04:41:59.723Z,6.61
2023-01-12T04:42:31.642Z,6.61
2023-01-12T04:43:05.649Z,6.61
2023-01-12T04:43:35.749Z,6.61
2023-01-12T04:44:07.699Z,6.61
2023-01-12T04:44:36.660Z,6.61
2023-01-12T04:44:55.295Z,6.61
2023-01-12T04:45:28.455Z,6.61
2023-01-12T04:45:59.571Z,6.61
2023-01-12T04:46:31.526Z,6.61
2023-01-12T04:47:03.665Z,6.61
2023-01-12T04:47:35.321Z,6.61
2023-01-12T04:48:07.582Z,6.61
2023-01-12T04:48:36.932Z,6.61
2023-01-12T04:48:55.433Z,6.61
2023-01-12T04:49:27.404Z,6.61
2023-01-12T04:49:59.876Z,6.61
2023-01-12T04:50:31.897Z,6.61
2023-01-12T04:51:03.533Z,6.50
2023-01-12T04:51:35.298Z,6.50
2023-01-12T04:52:07.521Z,6.50
2023-01-12T04:52:37.175Z,6.50
2023-01-12T04:52:55.355Z,6.61
2023-01-12T04:53:27.661Z,6.61
2023-01-12T04:53:59.588Z,6.61
2023-01-12T04:54:31.565Z,6.61
2023-01-12T04:55:05.021Z,6.61
2023-01-12T04:55:35.586Z,6.61
2023-01-12T04:56:07.594Z,6.61
2023-01-12T04:56:36.772Z,6.61
2023-01-12T04:56:55.301Z,6.61
2023-01-12T04:57:27.430Z,6.61
2023-01-12T04:57:59.539Z,6.61
2023-01-12T04:58:31.523Z,6.61
2023-01-12T04:59:03.576Z,6.61
2023-01-12T04:59:36.540Z,6.61
2023-01-12T05:00:09.471Z,6.61
2023-01-12T05:00:37.040Z,6.61
2023-01-12T05:00:55.719Z,6.61
2023-01-12T05:01:27.589Z,6.61
2023-01-12T05:01:59.582Z,6.61
2023-01-12T05:02:31.775Z,6.61
2023-01-12T05:03:03.513Z,6.61
2023-01-12T05:03:35.384Z,6.61
2023-01-12T05:04:08.071Z,6.72
2023-01-12T05:04:36.589Z,6.72
2023-01-12T05:04:55.312Z,6.72
2023-01-12T05:05:28.017Z,6.72
2023-01-12T05:05:59.776Z,6.72
2023-01-12T05:06:31.673Z,6.72
2023-01-12T05:07:03.797Z,6.72
2023-01-12T05:07:35.390Z,6.72
2023-01-12T05:08:07.635Z,6.72
2023-01-12T05:08:36.606Z,6.72
2023-01-12T05:08:55.339Z,6.61
2023-01-12T05:09:27.413Z,6.72
2023-01-12T05:09:59.605Z,6.72
2023-01-12T05:10:32.069Z,6.72
2023-01-12T05:11:03.667Z,6.72
2023-01-12T05:11:35.824Z,6.72
2023-01-12T05:12:07.460Z,6.72
2023-01-12T05:12:36.619Z,6.72
2023-01-12T05:12:55.244Z,6.72
2023-01-12T05:13:27.348Z,6.72
2023-01-12T05:13:59.500Z,6.72
2023-01-12T05:14:31.570Z,6.72
2023-01-12T05:15:05.559Z,6.72
2023-01-12T05:15:36.486Z,6.72
2023-01-12T05:16:07.515Z,6.72
2023-01-12T05:16:36.992Z,6.72
2023-01-12T05:16:55.461Z,6.72
2023-01-12T05:17:27.591Z,6.72
2023-01-12T05:17:59.738Z,6.72
2023-01-12T05:18:31.637Z,6.72
2023-01-12T05:19:03.727Z,6.72
2023-01-12T05:19:35.281Z,6.72
2023-01-12T05:20:08.967Z,6.72
2023-01-12T05:20:37.437Z,6.72
2023-01-12T05:20:56.384Z,6.72
2023-01-12T05:21:27.390Z,6.72
2023-01-12T05:21:59.850Z,6.72
2023-01-12T05:22:31.609Z,6.77
2023-01-12T05:23:03.522Z,6.77
2023-01-12T05:23:35.477Z,6.77
2023-01-12T05:24:07.442Z,6.77
2023-01-12T05:24:36.628Z,6.77
2023-01-12T05:24:55.597Z,6.72
2023-01-12T05:25:27.829Z,6.72
2023-01-12T05:25:59.592Z,6.77
2023-01-12T05:26:31.546Z,6.72
2023-01-12T05:27:03.521Z,6.72
2023-01-12T05:27:35.439Z,6.72
2023-01-12T05:28:07.411Z,6.72
2023-01-12T05:28:37.112Z,6.72
2023-01-12T05:28:55.618Z,6.72
2023-01-12T05:29:27.383Z,6.72
2023-01-12T05:30:02.147Z,6.72
2023-01-12T05:30:32.217Z,6.72
2023-01-12T05:31:03.852Z,6.77
2023-01-12T05:31:35.319Z,6.77
2023-01-12T05:32:07.426Z,6.77
2023-01-12T05:32:36.669Z,6.77
2023-01-12T05:32:55.305Z,6.77
2023-01-12T05:33:27.440Z,6.77
2023-01-12T05:33:59.571Z,6.77
2023-01-12T05:34:31.663Z,6.77
2023-01-12T05:35:04.857Z,6.77
2023-01-12T05:35:35.369Z,6.77
2023-01-12T05:36:07.468Z,6.77
2023-01-12T05:36:36.573Z,6.77
2023-01-12T05:36:55.571Z,6.77
2023-01-12T05:37:27.433Z,6.88
2023-01-12T05:37:59.550Z,6.88
2023-01-12T05:38:31.689Z,6.88
2023-01-12T05:39:03.932Z,6.88
2023-01-12T05:39:35.657Z,6.88
2023-01-12T05:40:08.109Z,6.88
2023-01-12T05:40:37.298Z,6.88
2023-01-12T05:40:55.894Z,6.88
2023-01-12T05:41:27.420Z,6.88
2023-01-12T05:41:59.669Z,6.88
2023-01-12T05:42:31.547Z,6.88
2023-01-12T05:43:03.585Z,6.88
2023-01-12T05:43:35.541Z,6.88
2023-01-12T05:44:08.109Z,6.88
2023-01-12T05:44:37.096Z,6.88
2023-01-12T05:44:55.404Z,6.88
2023-01-12T05:45:28.670Z,6.88
2023-01-12T05:45:59.960Z,6.88
2023-01-12T05:46:31.923Z,6.77
2023-01-12T05:47:03.704Z,6.88
2023-01-12T05:47:36.584Z,6.88
2023-01-12T05:48:07.759Z,6.88
2023-01-12T05:48:36.617Z,6.88
2023-01-12T05:48:55.617Z,6.88
2023-01-12T05:49:27.580Z,6.88
2023-01-12T05:49:59.626Z,6.88
2023-01-12T05:50:32.205Z,7.00
2023-01-12T05:51:03.524Z,7.00
2023-01-12T05:51:35.382Z,7.00
2023-01-12T05:52:07.456Z,7.00
2023-01-12T05:52:36.683Z,7.00
2023-01-12T05:52:55.522Z,7.00
2023-01-12T05:53:27.657Z,7.00
2023-01-12T05:53:59.749Z,7.00
2023-01-12T05:54:31.626Z,7.00
2023-01-12T05:55:05.211Z,7.00
2023-01-12T05:55:35.516Z,7.00
2023-01-12T05:56:07.543Z,7.00
2023-01-12T05:56:37.102Z,7.00
2023-01-12T05:56:55.234Z,7.00
2023-01-12T05:57:27.455Z,7.00
2023-01-12T05:57:59.849Z,7.00
2023-01-12T05:58:31.608Z,7.00
2023-01-12T05:59:03.712Z,7.00
2023-01-12T05:59:35.500Z,6.88
2023-01-12T06:00:09.655Z,6.88
2023-01-12T06:00:37.664Z,6.88
2023-01-12T06:00:55.632Z,6.88
2023-01-12T06:01:27.557Z,6.88
2023-01-12T06:01:59.879Z,6.88
2023-01-12T06:02:31.664Z,7.00
2023-01-12T06:03:03.598Z,7.00
2023-01-12T06:03:35.367Z,7.00
2023-01-12T06:04:07.600Z,7.00
2023-01-12T06:04:37.626Z,7.00
2023-01-12T06:04:55.457Z,7.00
2023-01-12T06:05:27.935Z,7.00
2023-01-12T06:05:59.631Z,7.00
2023-01-12T06:06:31.683Z,7.00
2023-01-12T06:07:03.597Z,7.00
2023-01-12T06:07:35.397Z,7.00
2023-01-12T06:08:07.434Z,7.00
2023-01-12T06:08:36.575Z,7.00
2023-01-12T06:08:55.335Z,7.11
2023-01-12T06:09:27.685Z,7.11
2023-01-12T06:09:59.687Z,7.11
2023-01-12T06:10:31.976Z,7.11
2023-01-12T06:11:03.621Z,7.11
2023-01-12T06:11:35.550Z,7.11
2023-01-12T06:12:07.532Z,7.00
2023-01-12T06:12:36.781Z,7.00
2023-01-12T06:12:55.234Z,7.00
2023-01-12T06:13:27.385Z,7.00
2023-01-12T06:13:59.670Z,7.00
2023-01-12T06:14:31.671Z,7.00
2023-01-12T06:15:05.481Z,7.00
2023-01-12T06:15:35.656Z,7.00
2023-01-12T06:16:07.490Z,7.00
2023-01-12T06:16:36.890Z,7.00
2023-01-12T06:16:55.581Z,7.00
2023-01-12T06:17:27.462Z,7.11
2023-01-12T06:17:59.740Z,7.11
2023-01-12T06:18:31.577Z,7.00
2023-01-12T06:19:03.544Z,7.00
2023-01-12T06:19:35.439Z,7.00
2023-01-12T06:20:09.215Z,7.00
2023-01-12T06:20:37.536Z,7.00
2023-01-12T06:20:55.655Z,7.00
2023-01-12T06:21:27.735Z,7.00
2023-01-12T06:22:15.137Z,7.00
2023-01-12T06:22:37.101Z,7.00
2023-01-12T06:23:03.576Z,7.00
2023-01-12T06:23:36.008Z,7.00
2023-01-12T06:24:07.821Z,7.00
2023-01-12T06:24:36.768Z,7.00
2023-01-12T06:24:55.259Z,7.00
2023-01-12T06:25:27.837Z,7.00
2023-01-12T06:25:59.633Z,7.00
2023-01-12T06:26:31.655Z,7.00
2023-01-12T06:27:03.550Z,7.00
2023-01-12T06:27:35.795Z,7.00
2023-01-12T06:28:07.464Z,7.00
2023-01-12T06:28:36.726Z,7.00
2023-01-12T06:28:55.293Z,7.00
2023-01-12T06:29:27.534Z,7.00
2023-01-12T06:29:59.603Z,7.11
2023-01-12T06:30:33.128Z,7.11
2023-01-12T06:31:03.813Z,7.11
2023-01-12T06:31:35.390Z,7.11
2023-01-12T06:32:07.396Z,7.11
2023-01-12T06:32:36.651Z,7.11
2023-01-12T06:32:55.315Z,7.11
2023-01-12T06:33:27.412Z,7.11
2023-01-12T06:33:59.624Z,7.11
2023-01-12T06:34:31.486Z,7.11
2023-01-12T06:35:17.942Z,7.11
2023-01-12T06:35:36.055Z,7.00
2023-01-12T06:36:07.513Z,7.00
2023-01-12T06:36:36.850Z,7.00
2023-01-12T06:36:55.304Z,7.00
2023-01-12T06:37:27.568Z,7.00
2023-01-12T06:37:59.625Z,7.00
2023-01-12T06:38:31.652Z,7.00
2023-01-12T06:39:03.599Z,7.00